sensor_id;sensor_type;location;lat;lon;timestamp;temperature;humidity
44731;DHT22;30458;47.448;19.032;2024-03-17T00:04:28;13.30;99.90
44731;DHT22;30458;47.448;19.032;2024-03-17T00:14:29;13.20;99.90
44731;DHT22;30458;47.448;19.032;2024-03-17T00:24:32;13.10;99.90
44731;DHT22;30458;47.448;19.032;2024-03-17T00:34:35;13.10;99.90
44731;DHT22;30458;47.448;19.032;2024-03-17T00:44:40;13.10;99.90
44731;DHT22;30458;47.448;19.032;2024-03-17T00:54:41;13.20;99.90
44731;DHT22;30458;47.448;19.032;2024-03-17T01:04:43;13.00;99.90
44731;DHT22;30458;47.448;19.032;2024-03-17T01:14:44;12.90;99.90
44731;DHT22;30458;47.448;19.032;2024-03-17T01:24:44;12.70;99.90
44731;DHT22;30458;47.448;19.032;2024-03-17T01:34:50;12.70;99.90
44731;DHT22;30458;47.448;19.032;2024-03-17T01:44:56;12.50;99.90
44731;DHT22;30458;47.448;19.032;2024-03-17T01:54:59;12.50;99.90
44731;DHT22;30458;47.448;19.032;2024-03-17T02:05:00;12.40;99.90
44731;DHT22;30458;47.448;19.032;2024-03-17T02:15:02;12.20;99.90
44731;DHT22;30458;47.448;19.032;2024-03-17T02:25:08;12.10;99.90
44731;DHT22;30458;47.448;19.032;2024-03-17T02:35:09;12.10;99.90
44731;DHT22;30458;47.448;19.032;2024-03-17T02:45:12;12.10;99.90
44731;DHT22;30458;47.448;19.032;2024-03-17T02:55:13;12.00;99.90
44731;DHT22;30458;47.448;19.032;2024-03-17T03:05:14;12.00;99.90
44731;DHT22;30458;47.448;19.032;2024-03-17T03:15:17;12.10;99.90
44731;DHT22;30458;47.448;19.032;2024-03-17T03:25:19;12.40;99.90
44731;DHT22;30458;47.448;19.032;2024-03-17T03:35:24;12.20;99.90
44731;DHT22;30458;47.448;19.032;2024-03-17T03:45:27;12.20;99.90
44731;DHT22;30458;47.448;19.032;2024-03-17T03:55:28;12.10;99.90
44731;DHT22;30458;47.448;19.032;2024-03-17T04:05:29;11.70;99.90
44731;DHT22;30458;47.448;19.032;2024-03-17T04:15:30;11.20;99.90
44731;DHT22;30458;47.448;19.032;2024-03-17T04:25:31;11.10;99.90
44731;DHT22;30458;47.448;19.032;2024-03-17T04:35:36;11.10;99.90
44731;DHT22;30458;47.448;19.032;2024-03-17T04:45:39;10.90;99.90
44731;DHT22;30458;47.448;19.032;2024-03-17T04:55:42;10.90;99.90
44731;DHT22;30458;47.448;19.032;2024-03-17T05:05:43;10.90;99.90
44731;DHT22;30458;47.448;19.032;2024-03-17T05:15:44;11.00;99.90
44731;DHT22;30458;47.448;19.032;2024-03-17T05:25:52;11.10;99.90
44731;DHT22;30458;47.448;19.032;2024-03-17T05:35:59;11.70;99.90
44731;DHT22;30458;47.448;19.032;2024-03-17T05:46:04;11.40;99.90
44731;DHT22;30458;47.448;19.032;2024-03-17T05:56:08;11.90;99.90
44731;DHT22;30458;47.448;19.032;2024-03-17T06:06:12;12.40;99.90
44731;DHT22;30458;47.448;19.032;2024-03-17T06:16:13;12.20;99.90
44731;DHT22;30458;47.448;19.032;2024-03-17T06:26:13;13.50;98.20
44731;DHT22;30458;47.448;19.032;2024-03-17T06:36:14;15.60;95.60
44731;DHT22;30458;47.448;19.032;2024-03-17T06:46:15;18.40;90.20
44731;DHT22;30458;47.448;19.032;2024-03-17T06:56:16;20.10;85.90
44731;DHT22;30458;47.448;19.032;2024-03-17T07:06:16;21.50;79.20
44731;DHT22;30458;47.448;19.032;2024-03-17T07:16:20;19.10;79.30
44731;DHT22;30458;47.448;19.032;2024-03-17T07:26:27;19.00;78.10
44731;DHT22;30458;47.448;19.032;2024-03-17T07:36:28;19.20;77.40
44731;DHT22;30458;47.448;19.032;2024-03-17T07:46:31;18.90;76.90
44731;DHT22;30458;47.448;19.032;2024-03-17T07:56:32;19.10;75.90
44731;DHT22;30458;47.448;19.032;2024-03-17T08:06:35;19.70;73.30
44731;DHT22;30458;47.448;19.032;2024-03-17T08:16:42;18.60;74.80
44731;DHT22;30458;47.448;19.032;2024-03-17T08:26:43;18.20;75.50
44731;DHT22;30458;47.448;19.032;2024-03-17T08:36:50;17.60;75.60
44731;DHT22;30458;47.448;19.032;2024-03-17T08:46:53;19.40;71.60
44731;DHT22;30458;47.448;19.032;2024-03-17T08:56:54;20.80;67.60
44731;DHT22;30458;47.448;19.032;2024-03-17T09:06:55;19.70;66.00
44731;DHT22;30458;47.448;19.032;2024-03-17T09:16:59;15.00;75.90
44731;DHT22;30458;47.448;19.032;2024-03-17T09:27:00;14.40;77.50
44731;DHT22;30458;47.448;19.032;2024-03-17T09:37:01;13.90;77.70
44731;DHT22;30458;47.448;19.032;2024-03-17T09:47:05;14.10;78.10
44731;DHT22;30458;47.448;19.032;2024-03-17T09:57:16;14.40;78.70
44731;DHT22;30458;47.448;19.032;2024-03-17T10:07:37;14.10;78.50
44731;DHT22;30458;47.448;19.032;2024-03-17T10:17:38;13.50;77.20
44731;DHT22;30458;47.448;19.032;2024-03-17T10:27:43;13.30;75.30
44731;DHT22;30458;47.448;19.032;2024-03-17T10:38:01;13.40;76.10
44731;DHT22;30458;47.448;19.032;2024-03-17T10:48:06;13.50;78.10
44731;DHT22;30458;47.448;19.032;2024-03-17T11:08:23;13.80;76.60
44731;DHT22;30458;47.448;19.032;2024-03-17T11:28:52;13.50;76.50
44731;DHT22;30458;47.448;19.032;2024-03-17T11:39:00;13.70;76.30
44731;DHT22;30458;47.448;19.032;2024-03-17T11:49:06;13.80;75.80
44731;DHT22;30458;47.448;19.032;2024-03-17T11:59:07;13.90;74.90
44731;DHT22;30458;47.448;19.032;2024-03-17T12:19:21;13.90;73.90
44731;DHT22;30458;47.448;19.032;2024-03-17T12:39:47;13.90;73.80
44731;DHT22;30458;47.448;19.032;2024-03-17T12:50:02;13.80;69.30
44731;DHT22;30458;47.448;19.032;2024-03-17T13:00:20;13.70;71.40
44731;DHT22;30458;47.448;19.032;2024-03-17T13:10:35;13.80;74.00
44731;DHT22;30458;47.448;19.032;2024-03-17T13:20:36;13.80;70.00
44731;DHT22;30458;47.448;19.032;2024-03-17T13:30:37;13.70;70.10
44731;DHT22;30458;47.448;19.032;2024-03-17T13:40:42;13.70;71.10
44731;DHT22;30458;47.448;19.032;2024-03-17T13:50:48;13.90;70.70
44731;DHT22;30458;47.448;19.032;2024-03-17T14:00:57;14.00;72.20
44731;DHT22;30458;47.448;19.032;2024-03-17T14:10:57;13.90;72.60
44731;DHT22;30458;47.448;19.032;2024-03-17T14:21:01;13.60;71.20
44731;DHT22;30458;47.448;19.032;2024-03-17T14:31:04;13.50;72.60
44731;DHT22;30458;47.448;19.032;2024-03-17T14:41:05;13.30;72.00
44731;DHT22;30458;47.448;19.032;2024-03-17T14:51:06;13.00;73.50
44731;DHT22;30458;47.448;19.032;2024-03-17T15:01:07;13.00;72.90
44731;DHT22;30458;47.448;19.032;2024-03-17T15:11:09;12.90;76.30
44731;DHT22;30458;47.448;19.032;2024-03-17T15:21:10;12.80;75.50
44731;DHT22;30458;47.448;19.032;2024-03-17T15:31:15;12.80;75.80
44731;DHT22;30458;47.448;19.032;2024-03-17T15:41:20;12.90;76.50
44731;DHT22;30458;47.448;19.032;2024-03-17T15:51:21;12.80;75.50
44731;DHT22;30458;47.448;19.032;2024-03-17T16:01:25;12.70;75.90
44731;DHT22;30458;47.448;19.032;2024-03-17T16:11:28;12.50;76.90
44731;DHT22;30458;47.448;19.032;2024-03-17T16:21:32;12.40;76.50
44731;DHT22;30458;47.448;19.032;2024-03-17T16:31:35;12.40;76.50
44731;DHT22;30458;47.448;19.032;2024-03-17T16:41:41;12.10;77.90
44731;DHT22;30458;47.448;19.032;2024-03-17T16:51:44;11.90;78.90
44731;DHT22;30458;47.448;19.032;2024-03-17T17:01:47;12.00;78.90
44731;DHT22;30458;47.448;19.032;2024-03-17T17:11:50;12.00;79.60
44731;DHT22;30458;47.448;19.032;2024-03-17T17:21:53;12.00;80.10
44731;DHT22;30458;47.448;19.032;2024-03-17T17:31:57;11.90;79.90
44731;DHT22;30458;47.448;19.032;2024-03-17T17:42:00;11.90;80.60
44731;DHT22;30458;47.448;19.032;2024-03-17T17:52:05;11.70;81.50
44731;DHT22;30458;47.448;19.032;2024-03-17T18:02:08;11.70;81.20
44731;DHT22;30458;47.448;19.032;2024-03-17T18:12:09;11.70;81.80
44731;DHT22;30458;47.448;19.032;2024-03-17T18:22:15;11.60;82.90
44731;DHT22;30458;47.448;19.032;2024-03-17T18:32:18;11.50;82.90
44731;DHT22;30458;47.448;19.032;2024-03-17T18:42:21;11.50;83.00
44731;DHT22;30458;47.448;19.032;2024-03-17T18:52:22;11.40;82.70
44731;DHT22;30458;47.448;19.032;2024-03-17T19:02:22;11.40;83.80
44731;DHT22;30458;47.448;19.032;2024-03-17T19:12:24;11.30;84.10
44731;DHT22;30458;47.448;19.032;2024-03-17T19:22:25;11.20;84.40
44731;DHT22;30458;47.448;19.032;2024-03-17T19:32:29;11.10;84.00
44731;DHT22;30458;47.448;19.032;2024-03-17T19:42:30;11.00;84.60
44731;DHT22;30458;47.448;19.032;2024-03-17T19:52:31;10.70;84.90
44731;DHT22;30458;47.448;19.032;2024-03-17T20:02:32;10.70;85.20
44731;DHT22;30458;47.448;19.032;2024-03-17T20:12:35;10.70;86.30
44731;DHT22;30458;47.448;19.032;2024-03-17T20:22:38;10.50;86.20
44731;DHT22;30458;47.448;19.032;2024-03-17T20:32:42;10.40;86.80
44731;DHT22;30458;47.448;19.032;2024-03-17T20:42:43;10.20;87.20
44731;DHT22;30458;47.448;19.032;2024-03-17T20:52:46;10.20;87.50
44731;DHT22;30458;47.448;19.032;2024-03-17T21:02:56;10.00;87.70
44731;DHT22;30458;47.448;19.032;2024-03-17T21:12:58;9.90;88.00
44731;DHT22;30458;47.448;19.032;2024-03-17T21:23:01;9.70;88.50
44731;DHT22;30458;47.448;19.032;2024-03-17T21:33:03;9.90;88.10
44731;DHT22;30458;47.448;19.032;2024-03-17T21:43:04;9.90;88.40
44731;DHT22;30458;47.448;19.032;2024-03-17T21:53:07;9.90;88.30
44731;DHT22;30458;47.448;19.032;2024-03-17T22:03:08;9.80;88.30
44731;DHT22;30458;47.448;19.032;2024-03-17T22:13:12;9.70;88.80
44731;DHT22;30458;47.448;19.032;2024-03-17T22:23:15;9.70;89.60
44731;DHT22;30458;47.448;19.032;2024-03-17T22:33:26;9.60;88.40
44731;DHT22;30458;47.448;19.032;2024-03-17T22:43:28;9.60;87.70
44731;DHT22;30458;47.448;19.032;2024-03-17T22:53:31;9.60;87.80
44731;DHT22;30458;47.448;19.032;2024-03-17T23:03:34;9.40;88.80
44731;DHT22;30458;47.448;19.032;2024-03-17T23:13:36;9.40;88.10
44731;DHT22;30458;47.448;19.032;2024-03-17T23:23:40;9.50;88.00
44731;DHT22;30458;47.448;19.032;2024-03-17T23:33:43;9.40;88.20
44731;DHT22;30458;47.448;19.032;2024-03-17T23:43:46;9.20;89.20
44731;DHT22;30458;47.448;19.032;2024-03-17T23:53:49;9.10;89.90
